Terminal Aerodrome Forecast
Issued by NWS

Home | Current Version | Previous Version | Text Only | Print | Product List | Glossary On
Versions: 1 2 3 4 5 6 7 8 9 10 11 12 13 14 15 16
000
FTUS43 KFGF 261900 AAA
TAFTVF
TAF AMD
KTVF 261932Z 2620/2718 26014G21KT P6SM BKN050
     FM262100 27016G25KT P6SM VCSH OVC050
     FM270000 28014G22KT P6SM VCSH OVC040
     FM270600 30013KT P6SM VCSH BKN025
     FM271400 35017G26KT P6SM BKN025
      AMD LTD TO CLD VIS AND WIND=

USA.gov is the U.S. government's official web portal to all federal, state and local government web resources and services.